createdAt,value
2023-04-23T00:02:55.479Z,62.62
2023-04-23T00:08:00.634Z,62.33
2023-04-23T00:13:04.627Z,62.27
2023-04-23T00:18:08.124Z,62.60
2023-04-23T00:23:11.137Z,62.85
2023-04-23T00:28:13.904Z,63.04
2023-04-23T00:33:16.818Z,63.17
2023-04-23T00:38:21.225Z,63.33
2023-04-23T00:43:24.188Z,63.19
2023-04-23T00:48:29.123Z,63.27
2023-04-23T00:53:33.593Z,63.49
2023-04-23T00:58:36.807Z,63.92
2023-04-23T01:03:43.048Z,63.91
2023-04-23T01:08:47.760Z,63.74
2023-04-23T01:13:50.768Z,63.75
2023-04-23T01:18:53.965Z,63.92
2023-04-23T01:23:56.744Z,64.04
2023-04-23T01:29:01.343Z,63.78
2023-04-23T01:34:04.631Z,64.03
2023-04-23T01:39:09.122Z,64.35
2023-04-23T01:44:12.298Z,64.57
2023-04-23T01:49:15.735Z,64.97
2023-04-23T01:54:18.565Z,64.95
2023-04-23T01:59:24.402Z,65.18
2023-04-23T02:04:28.226Z,64.99
2023-04-23T02:09:31.160Z,65.07
2023-04-23T02:14:34.053Z,65.25
2023-04-23T02:19:36.851Z,65.10
2023-04-23T02:24:42.254Z,64.93
2023-04-23T02:29:46.716Z,65.06
2023-04-23T02:34:49.481Z,65.14
2023-04-23T02:39:52.256Z,65.22
2023-04-23T02:44:54.996Z,65.21
2023-04-23T02:49:59.321Z,65.17
2023-04-23T02:55:05.277Z,65.42
2023-04-23T03:00:09.670Z,65.51
2023-04-23T03:05:12.806Z,65.63
2023-04-23T03:10:15.736Z,65.54
2023-04-23T03:15:18.821Z,65.66
2023-04-23T03:20:21.936Z,65.71
2023-04-23T03:25:25.902Z,65.94
2023-04-23T03:30:29.801Z,66.08
2023-04-23T03:35:32.738Z,66.35
2023-04-23T03:40:35.894Z,66.40
2023-04-23T03:45:38.661Z,66.21
2023-04-23T03:50:41.495Z,66.31
2023-04-23T03:55:44.957Z,66.21
2023-04-23T04:00:47.822Z,66.27
2023-04-23T04:05:50.665Z,66.35
2023-04-23T04:10:53.659Z,66.17
2023-04-23T04:15:56.603Z,65.89
2023-04-23T04:20:59.793Z,65.78
2023-04-23T04:26:02.801Z,65.46
2023-04-23T04:31:06.911Z,65.45
2023-04-23T04:36:09.889Z,65.18
2023-04-23T04:41:13.288Z,65.06
2023-04-23T04:46:16.277Z,64.90
2023-04-23T04:51:20.375Z,64.87
2023-04-23T04:56:24.166Z,64.12
2023-04-23T05:01:29.074Z,61.72
2023-04-23T05:06:32.471Z,59.21
2023-04-23T05:11:36.044Z,56.85
2023-04-23T05:16:38.918Z,54.58
2023-04-23T05:21:42.683Z,52.49
2023-04-23T05:26:45.587Z,50.30
2023-04-23T05:31:51.853Z,48.56
2023-04-23T05:36:54.756Z,46.43
2023-04-23T05:41:58.155Z,45.01
2023-04-23T05:47:01.072Z,43.67
2023-04-23T05:52:04.036Z,42.62
2023-04-23T05:57:07.114Z,41.53
2023-04-23T06:02:11.241Z,40.76
2023-04-23T06:07:15.319Z,39.03
2023-04-23T06:12:18.493Z,38.22
2023-04-23T06:17:21.393Z,36.55
2023-04-23T06:22:24.266Z,35.67
2023-04-23T06:27:27.298Z,35.17
2023-04-23T06:32:30.137Z,33.29
2023-04-23T06:37:32.990Z,32.25
2023-04-23T06:42:35.958Z,32.31
2023-04-23T06:47:38.763Z,31.51
2023-04-23T06:52:41.963Z,30.47
2023-04-23T06:57:44.917Z,29.59
2023-04-23T07:02:47.924Z,29.34
2023-04-23T07:07:50.978Z,29.24
2023-04-23T07:12:53.745Z,29.00
2023-04-23T07:17:56.804Z,28.60
2023-04-23T07:22:59.904Z,28.56
2023-04-23T07:28:02.835Z,26.93
2023-04-23T07:33:06.162Z,26.93
2023-04-23T07:38:09.139Z,26.76
2023-04-23T07:43:12.484Z,25.81
2023-04-23T07:48:15.363Z,24.85
2023-04-23T07:53:18.334Z,24.27
2023-04-23T07:58:21.343Z,24.67
2023-04-23T08:03:24.650Z,24.50
2023-04-23T08:08:27.701Z,23.67
2023-04-23T08:13:30.641Z,23.65
2023-04-23T08:18:33.523Z,23.60
2023-04-23T08:23:36.323Z,22.98
2023-04-23T08:28:39.131Z,22.92
2023-04-23T08:33:42.044Z,23.00
2023-04-23T08:38:44.883Z,22.67
2023-04-23T08:44:14.675Z,22.59
2023-04-23T08:49:18.907Z,22.35
2023-04-23T08:54:28.066Z,22.42
2023-04-23T08:59:32.114Z,22.05
2023-04-23T09:04:36.470Z,21.81
2023-04-23T09:09:41.059Z,21.72
2023-04-23T09:14:45.143Z,21.08
2023-04-23T09:19:51.100Z,21.42
2023-04-23T09:24:54.584Z,21.67
2023-04-23T09:29:59.597Z,22.00
2023-04-23T09:35:07.911Z,21.34
2023-04-23T09:40:18.559Z,21.31
2023-04-23T09:45:22.141Z,21.26
2023-04-23T09:50:40.009Z,21.34
2023-04-23T09:55:45.014Z,21.63
2023-04-23T10:00:48.655Z,21.02
2023-04-23T10:06:01.958Z,20.49
2023-04-23T10:11:19.839Z,20.42
2023-04-23T10:16:26.886Z,20.55
2023-04-23T10:21:46.279Z,20.87
2023-04-23T10:26:59.812Z,20.83
2023-04-23T10:32:07.206Z,21.18
2023-04-23T10:37:12.037Z,21.28
2023-04-23T10:42:16.908Z,21.10
2023-04-23T10:47:22.603Z,20.93
2023-04-23T10:52:26.281Z,21.42
2023-04-23T10:57:29.277Z,21.01
2023-04-23T11:02:44.985Z,20.89
2023-04-23T11:08:18.953Z,20.89
2023-04-23T11:13:28.194Z,21.34
2023-04-23T11:18:30.982Z,21.21
2023-04-23T11:23:34.034Z,21.10
2023-04-23T11:28:39.745Z,21.01
2023-04-23T11:33:42.791Z,21.30
2023-04-23T11:38:46.218Z,21.36
2023-04-23T11:43:49.039Z,21.21
2023-04-23T11:48:52.077Z,21.35
2023-04-23T11:53:55.048Z,21.78
2023-04-23T11:59:05.363Z,22.00
2023-04-23T12:04:13.568Z,22.03
2023-04-23T12:09:21.193Z,22.18
2023-04-23T12:14:30.640Z,22.17
2023-04-23T12:19:33.673Z,22.36
2023-04-23T12:24:54.523Z,22.75
2023-04-23T12:30:02.234Z,22.51
2023-04-23T12:35:07.256Z,23.09
2023-04-23T12:40:11.096Z,23.17
2023-04-23T12:45:13.920Z,22.91
2023-04-23T12:50:16.986Z,23.13
2023-04-23T12:55:19.900Z,23.52
2023-04-23T13:00:23.426Z,23.82
2023-04-23T13:05:26.205Z,23.88
2023-04-23T13:10:31.022Z,24.58
2023-04-23T13:15:34.060Z,24.92
2023-04-23T13:20:36.888Z,25.24
2023-04-23T13:25:39.724Z,25.45
2023-04-23T13:30:42.506Z,25.41
2023-04-23T13:35:45.311Z,25.69
2023-04-23T13:40:48.232Z,26.03
2023-04-23T13:45:54.239Z,25.85
2023-04-23T13:51:01.776Z,25.93
2023-04-23T13:56:04.956Z,26.37
2023-04-23T14:01:07.840Z,26.60
2023-04-23T14:06:11.123Z,27.07
2023-04-23T14:11:13.933Z,28.00
2023-04-23T14:16:17.608Z,28.14
2023-04-23T14:21:20.555Z,28.09
2023-04-23T14:26:49.439Z,28.44
2023-04-23T14:31:52.993Z,28.19
2023-04-23T14:36:55.955Z,28.31
2023-04-23T14:41:58.851Z,28.27
2023-04-23T14:47:02.344Z,28.37
2023-04-23T14:52:05.228Z,28.52
2023-04-23T14:57:08.152Z,28.66
2023-04-23T15:02:12.280Z,28.82
2023-04-23T15:07:15.367Z,29.34
2023-04-23T15:12:37.956Z,29.73
2023-04-23T15:17:41.528Z,29.58
2023-04-23T15:22:47.896Z,29.56
2023-04-23T15:27:57.679Z,29.74
2023-04-23T15:33:00.641Z,29.97
2023-04-23T15:38:03.835Z,30.24
2023-04-23T15:43:06.759Z,30.42
2023-04-23T15:48:10.096Z,30.56
2023-04-23T15:53:13.069Z,30.67
2023-04-23T15:58:15.931Z,30.78
2023-04-23T16:03:18.973Z,31.01
2023-04-23T16:08:22.165Z,31.27
2023-04-23T16:13:26.760Z,31.49
2023-04-23T16:18:29.650Z,31.73
2023-04-23T16:23:32.463Z,32.08
2023-04-23T16:28:35.628Z,32.26
2023-04-23T16:33:38.604Z,32.40
2023-04-23T16:38:44.945Z,32.60
2023-04-23T16:43:47.790Z,32.93
2023-04-23T16:48:50.620Z,33.10
2023-04-23T16:53:53.406Z,33.28
2023-04-23T16:58:56.527Z,33.64
2023-04-23T17:03:59.527Z,33.81
2023-04-23T17:09:05.333Z,33.87
2023-04-23T17:14:08.191Z,34.12
2023-04-23T17:19:11.665Z,34.36
2023-04-23T17:24:14.559Z,34.56
2023-04-23T17:29:17.420Z,35.14
2023-04-23T17:34:20.205Z,35.44
2023-04-23T17:39:23.808Z,35.66
2023-04-23T17:44:26.746Z,36.02
2023-04-23T17:49:29.614Z,36.29
2023-04-23T17:54:32.546Z,36.60
2023-04-23T17:59:35.795Z,36.87
2023-04-23T18:04:38.651Z,37.27
2023-04-23T18:09:41.429Z,37.56
2023-04-23T18:14:44.318Z,37.96
2023-04-23T18:19:48.967Z,38.47
2023-04-23T18:24:51.792Z,39.01
2023-04-23T18:29:57.626Z,39.29
2023-04-23T18:35:01.996Z,39.57
2023-04-23T18:40:06.908Z,39.88
2023-04-23T18:45:10.793Z,40.38
2023-04-23T18:50:50.099Z,40.47
2023-04-23T18:55:52.902Z,40.46
2023-04-23T19:00:56.527Z,40.96
2023-04-23T19:05:59.645Z,41.44
2023-04-23T19:11:03.790Z,42.38
2023-04-23T19:16:08.942Z,42.94
2023-04-23T19:21:12.206Z,43.15
2023-04-23T19:26:15.017Z,43.60
2023-04-23T19:31:17.977Z,44.17
2023-04-23T19:36:20.959Z,45.03
2023-04-23T19:41:23.783Z,45.53
2023-04-23T19:46:26.685Z,46.03
2023-04-23T19:51:35.501Z,46.08
2023-04-23T19:56:38.331Z,45.96
2023-04-23T20:01:45.560Z,46.44
2023-04-23T20:06:48.412Z,46.96
2023-04-23T20:11:52.829Z,47.11
2023-04-23T20:16:56.802Z,47.47
2023-04-23T20:21:59.610Z,47.89
2023-04-23T20:27:02.489Z,48.02
2023-04-23T20:32:05.729Z,48.19
2023-04-23T20:37:08.814Z,48.69
2023-04-23T20:42:12.075Z,49.87
2023-04-23T20:47:18.720Z,49.85
2023-04-23T20:52:21.653Z,50.33
2023-04-23T20:57:24.498Z,50.49
2023-04-23T21:02:27.500Z,50.60
2023-04-23T21:07:31.131Z,51.35
2023-04-23T21:12:34.041Z,51.50
2023-04-23T21:17:36.904Z,51.38
2023-04-23T21:22:39.802Z,51.28
2023-04-23T21:27:46.016Z,51.39
2023-04-23T21:32:52.218Z,51.78
2023-04-23T21:37:55.382Z,52.06
2023-04-23T21:42:58.211Z,52.28
2023-04-23T21:48:02.002Z,52.58
2023-04-23T21:53:06.959Z,54.03
2023-04-23T22:03:20.533Z,54.03
2023-04-23T22:08:40.484Z,54.29
2023-04-23T22:13:43.406Z,54.27
2023-04-23T22:18:46.175Z,54.51
2023-04-23T22:23:49.055Z,54.51
2023-04-23T22:28:52.306Z,54.83
2023-04-23T22:33:55.305Z,55.25
2023-04-23T22:38:58.503Z,55.19
2023-04-23T22:44:01.270Z,55.69
2023-04-23T22:49:07.754Z,55.80
2023-04-23T22:54:10.662Z,55.76
2023-04-23T22:59:13.699Z,55.94
2023-04-23T23:04:16.580Z,56.11
2023-04-23T23:09:19.466Z,56.51
2023-04-23T23:14:23.213Z,56.72
2023-04-23T23:19:28.282Z,56.72
2023-04-23T23:24:31.092Z,56.76
2023-04-23T23:29:34.216Z,56.96
2023-04-23T23:34:37.010Z,57.42
2023-04-23T23:39:40.000Z,57.79
2023-04-23T23:44:42.951Z,58.04
2023-04-23T23:49:45.883Z,58.08
2023-04-23T23:54:48.791Z,58.29
2023-04-23T23:59:51.567Z,58.65
